sensor_id;sensor_type;location;lat;lon;timestamp;P1;durP1;ratioP1;P2;durP2;ratioP2
14326;SDS011;7247;53.330;-1.180;2023-07-20T00:01:57;6.97;;;4.50;;
14326;SDS011;7247;53.330;-1.180;2023-07-20T00:04:23;7.07;;;4.10;;
14326;SDS011;7247;53.330;-1.180;2023-07-20T00:06:50;8.37;;;4.00;;
14326;SDS011;7247;53.330;-1.180;2023-07-20T00:09:16;7.27;;;4.10;;
14326;SDS011;7247;53.330;-1.180;2023-07-20T00:11:48;4.77;;;4.07;;
14326;SDS011;7247;53.330;-1.180;2023-07-20T00:14:16;8.03;;;4.33;;
14326;SDS011;7247;53.330;-1.180;2023-07-20T00:16:42;6.13;;;4.37;;
14326;SDS011;7247;53.330;-1.180;2023-07-20T00:19:09;7.50;;;4.43;;
14326;SDS011;7247;53.330;-1.180;2023-07-20T00:21:36;7.97;;;4.60;;
14326;SDS011;7247;53.330;-1.180;2023-07-20T00:24:06;5.73;;;4.50;;
14326;SDS011;7247;53.330;-1.180;2023-07-20T00:26:32;6.87;;;4.50;;
14326;SDS011;7247;53.330;-1.180;2023-07-20T00:28:58;7.67;;;4.60;;
14326;SDS011;7247;53.330;-1.180;2023-07-20T00:31:26;5.43;;;4.67;;
14326;SDS011;7247;53.330;-1.180;2023-07-20T00:33:54;7.57;;;4.07;;
14326;SDS011;7247;53.330;-1.180;2023-07-20T00:36:21;5.50;;;4.50;;
14326;SDS011;7247;53.330;-1.180;2023-07-20T00:38:47;5.43;;;4.40;;
14326;SDS011;7247;53.330;-1.180;2023-07-20T00:41:13;7.20;;;4.70;;
14326;SDS011;7247;53.330;-1.180;2023-07-20T00:43:40;5.23;;;4.50;;
14326;SDS011;7247;53.330;-1.180;2023-07-20T00:46:07;7.93;;;4.40;;
14326;SDS011;7247;53.330;-1.180;2023-07-20T00:48:35;7.40;;;4.50;;
14326;SDS011;7247;53.330;-1.180;2023-07-20T00:51:01;8.20;;;4.30;;
14326;SDS011;7247;53.330;-1.180;2023-07-20T00:53:28;9.03;;;3.97;;
14326;SDS011;7247;53.330;-1.180;2023-07-20T00:55:54;6.70;;;3.87;;
14326;SDS011;7247;53.330;-1.180;2023-07-20T00:58:21;7.60;;;4.17;;
14326;SDS011;7247;53.330;-1.180;2023-07-20T01:00:48;7.63;;;3.80;;
14326;SDS011;7247;53.330;-1.180;2023-07-20T01:03:14;6.97;;;3.77;;
14326;SDS011;7247;53.330;-1.180;2023-07-20T01:05:44;4.60;;;4.17;;
14326;SDS011;7247;53.330;-1.180;2023-07-20T01:08:15;6.07;;;3.50;;
14326;SDS011;7247;53.330;-1.180;2023-07-20T01:10:45;6.77;;;3.50;;
14326;SDS011;7247;53.330;-1.180;2023-07-20T01:13:12;4.83;;;3.53;;
14326;SDS011;7247;53.330;-1.180;2023-07-20T01:15:40;4.30;;;3.50;;
14326;SDS011;7247;53.330;-1.180;2023-07-20T01:18:06;6.23;;;3.70;;
14326;SDS011;7247;53.330;-1.180;2023-07-20T01:20:33;3.77;;;3.23;;
14326;SDS011;7247;53.330;-1.180;2023-07-20T01:23:06;6.70;;;4.20;;
14326;SDS011;7247;53.330;-1.180;2023-07-20T01:25:45;6.37;;;3.80;;
14326;SDS011;7247;53.330;-1.180;2023-07-20T01:28:31;7.50;;;3.80;;
14326;SDS011;7247;53.330;-1.180;2023-07-20T01:31:07;4.90;;;3.43;;
14326;SDS011;7247;53.330;-1.180;2023-07-20T01:33:34;4.83;;;3.60;;
14326;SDS011;7247;53.330;-1.180;2023-07-20T01:36:00;6.17;;;3.40;;
14326;SDS011;7247;53.330;-1.180;2023-07-20T01:38:27;4.87;;;3.33;;
14326;SDS011;7247;53.330;-1.180;2023-07-20T01:40:54;4.77;;;3.67;;
14326;SDS011;7247;53.330;-1.180;2023-07-20T01:43:21;5.53;;;3.93;;
14326;SDS011;7247;53.330;-1.180;2023-07-20T01:45:47;6.83;;;3.63;;
14326;SDS011;7247;53.330;-1.180;2023-07-20T01:48:15;4.97;;;3.73;;
14326;SDS011;7247;53.330;-1.180;2023-07-20T01:50:41;5.57;;;3.80;;
14326;SDS011;7247;53.330;-1.180;2023-07-20T01:53:08;4.93;;;3.80;;
14326;SDS011;7247;53.330;-1.180;2023-07-20T01:55:34;5.10;;;3.83;;
14326;SDS011;7247;53.330;-1.180;2023-07-20T01:58:01;5.23;;;3.93;;
14326;SDS011;7247;53.330;-1.180;2023-07-20T02:00:28;5.97;;;4.07;;
14326;SDS011;7247;53.330;-1.180;2023-07-20T02:02:54;7.73;;;4.33;;
14326;SDS011;7247;53.330;-1.180;2023-07-20T02:05:22;5.87;;;3.83;;
14326;SDS011;7247;53.330;-1.180;2023-07-20T02:07:49;7.63;;;4.10;;
14326;SDS011;7247;53.330;-1.180;2023-07-20T02:10:16;7.13;;;4.00;;
14326;SDS011;7247;53.330;-1.180;2023-07-20T02:12:42;8.30;;;4.20;;
14326;SDS011;7247;53.330;-1.180;2023-07-20T02:15:09;5.10;;;4.40;;
14326;SDS011;7247;53.330;-1.180;2023-07-20T02:17:35;7.60;;;4.20;;
14326;SDS011;7247;53.330;-1.180;2023-07-20T02:20:02;7.03;;;4.17;;
14326;SDS011;7247;53.330;-1.180;2023-07-20T02:22:30;5.17;;;4.47;;
14326;SDS011;7247;53.330;-1.180;2023-07-20T02:24:56;7.60;;;4.37;;
14326;SDS011;7247;53.330;-1.180;2023-07-20T02:27:23;6.63;;;4.67;;
14326;SDS011;7247;53.330;-1.180;2023-07-20T02:29:49;8.40;;;5.10;;
14326;SDS011;7247;53.330;-1.180;2023-07-20T02:32:15;7.90;;;5.10;;
14326;SDS011;7247;53.330;-1.180;2023-07-20T02:34:42;9.73;;;5.50;;
14326;SDS011;7247;53.330;-1.180;2023-07-20T02:37:08;13.87;;;8.37;;
14326;SDS011;7247;53.330;-1.180;2023-07-20T02:39:37;9.93;;;5.70;;
14326;SDS011;7247;53.330;-1.180;2023-07-20T02:42:03;5.83;;;4.50;;
14326;SDS011;7247;53.330;-1.180;2023-07-20T02:44:30;6.07;;;4.47;;
14326;SDS011;7247;53.330;-1.180;2023-07-20T02:46:56;6.70;;;4.17;;
14326;SDS011;7247;53.330;-1.180;2023-07-20T02:49:22;6.03;;;4.70;;
14326;SDS011;7247;53.330;-1.180;2023-07-20T02:51:49;5.20;;;4.13;;
14326;SDS011;7247;53.330;-1.180;2023-07-20T02:54:15;6.77;;;4.73;;
14326;SDS011;7247;53.330;-1.180;2023-07-20T02:56:43;6.60;;;4.30;;
14326;SDS011;7247;53.330;-1.180;2023-07-20T02:59:09;6.67;;;4.50;;
14326;SDS011;7247;53.330;-1.180;2023-07-20T03:01:36;6.20;;;4.60;;
14326;SDS011;7247;53.330;-1.180;2023-07-20T03:04:02;8.03;;;5.00;;
14326;SDS011;7247;53.330;-1.180;2023-07-20T03:06:29;6.03;;;4.90;;
14326;SDS011;7247;53.330;-1.180;2023-07-20T03:08:55;7.20;;;4.87;;
14326;SDS011;7247;53.330;-1.180;2023-07-20T03:11:23;7.90;;;5.50;;
14326;SDS011;7247;53.330;-1.180;2023-07-20T03:13:50;8.47;;;4.87;;
14326;SDS011;7247;53.330;-1.180;2023-07-20T03:16:18;6.97;;;5.10;;
14326;SDS011;7247;53.330;-1.180;2023-07-20T03:18:44;7.30;;;5.13;;
14326;SDS011;7247;53.330;-1.180;2023-07-20T03:21:11;6.83;;;4.90;;
14326;SDS011;7247;53.330;-1.180;2023-07-20T03:23:38;8.43;;;4.63;;
14326;SDS011;7247;53.330;-1.180;2023-07-20T03:26:04;7.10;;;5.00;;
14326;SDS011;7247;53.330;-1.180;2023-07-20T03:28:33;6.97;;;4.87;;
14326;SDS011;7247;53.330;-1.180;2023-07-20T03:31:01;5.37;;;4.67;;
14326;SDS011;7247;53.330;-1.180;2023-07-20T03:33:27;7.67;;;4.97;;
14326;SDS011;7247;53.330;-1.180;2023-07-20T03:35:54;7.33;;;4.63;;
14326;SDS011;7247;53.330;-1.180;2023-07-20T03:38:21;6.10;;;4.73;;
14326;SDS011;7247;53.330;-1.180;2023-07-20T03:40:50;7.20;;;4.80;;
14326;SDS011;7247;53.330;-1.180;2023-07-20T03:43:17;8.27;;;5.30;;
14326;SDS011;7247;53.330;-1.180;2023-07-20T03:45:43;7.20;;;4.60;;
14326;SDS011;7247;53.330;-1.180;2023-07-20T03:48:12;6.20;;;4.90;;
14326;SDS011;7247;53.330;-1.180;2023-07-20T03:50:38;6.67;;;4.60;;
14326;SDS011;7247;53.330;-1.180;2023-07-20T03:53:04;8.27;;;4.73;;
14326;SDS011;7247;53.330;-1.180;2023-07-20T03:55:31;5.97;;;4.50;;
14326;SDS011;7247;53.330;-1.180;2023-07-20T03:57:57;6.83;;;4.80;;
14326;SDS011;7247;53.330;-1.180;2023-07-20T04:00:24;7.87;;;4.57;;
14326;SDS011;7247;53.330;-1.180;2023-07-20T04:02:50;4.70;;;4.20;;
14326;SDS011;7247;53.330;-1.180;2023-07-20T04:05:18;7.67;;;4.47;;
14326;SDS011;7247;53.330;-1.180;2023-07-20T04:07:45;7.43;;;4.60;;
14326;SDS011;7247;53.330;-1.180;2023-07-20T04:10:12;6.67;;;4.63;;
14326;SDS011;7247;53.330;-1.180;2023-07-20T04:12:38;7.57;;;3.90;;
14326;SDS011;7247;53.330;-1.180;2023-07-20T04:15:05;5.53;;;4.47;;
14326;SDS011;7247;53.330;-1.180;2023-07-20T04:17:32;6.50;;;4.60;;
14326;SDS011;7247;53.330;-1.180;2023-07-20T04:19:58;5.43;;;4.60;;
14326;SDS011;7247;53.330;-1.180;2023-07-20T04:22:26;8.13;;;4.87;;
14326;SDS011;7247;53.330;-1.180;2023-07-20T04:24:52;5.60;;;4.37;;
14326;SDS011;7247;53.330;-1.180;2023-07-20T04:27:19;8.40;;;4.77;;
14326;SDS011;7247;53.330;-1.180;2023-07-20T04:29:45;9.30;;;5.00;;
14326;SDS011;7247;53.330;-1.180;2023-07-20T04:32:11;9.20;;;5.30;;
14326;SDS011;7247;53.330;-1.180;2023-07-20T04:34:38;6.37;;;4.90;;
14326;SDS011;7247;53.330;-1.180;2023-07-20T04:37:04;9.17;;;5.10;;
14326;SDS011;7247;53.330;-1.180;2023-07-20T04:39:32;7.80;;;4.50;;
14326;SDS011;7247;53.330;-1.180;2023-07-20T04:41:58;6.20;;;4.70;;
14326;SDS011;7247;53.330;-1.180;2023-07-20T04:44:25;8.20;;;4.57;;
14326;SDS011;7247;53.330;-1.180;2023-07-20T04:46:51;6.47;;;4.53;;
14326;SDS011;7247;53.330;-1.180;2023-07-20T04:49:18;6.57;;;4.73;;
14326;SDS011;7247;53.330;-1.180;2023-07-20T04:51:44;5.80;;;4.53;;
14326;SDS011;7247;53.330;-1.180;2023-07-20T04:54:11;5.33;;;4.40;;
14326;SDS011;7247;53.330;-1.180;2023-07-20T04:56:40;9.10;;;4.93;;
14326;SDS011;7247;53.330;-1.180;2023-07-20T04:59:06;6.23;;;4.57;;
14326;SDS011;7247;53.330;-1.180;2023-07-20T05:01:32;6.17;;;4.30;;
14326;SDS011;7247;53.330;-1.180;2023-07-20T05:03:59;5.27;;;4.50;;
14326;SDS011;7247;53.330;-1.180;2023-07-20T05:06:25;5.47;;;4.30;;
14326;SDS011;7247;53.330;-1.180;2023-07-20T05:08:52;5.83;;;4.47;;
14326;SDS011;7247;53.330;-1.180;2023-07-20T05:11:18;5.90;;;4.33;;
14326;SDS011;7247;53.330;-1.180;2023-07-20T05:13:46;5.83;;;4.50;;
14326;SDS011;7247;53.330;-1.180;2023-07-20T05:16:12;6.60;;;4.00;;
14326;SDS011;7247;53.330;-1.180;2023-07-20T05:18:39;5.00;;;4.20;;
14326;SDS011;7247;53.330;-1.180;2023-07-20T05:21:05;8.17;;;3.97;;
14326;SDS011;7247;53.330;-1.180;2023-07-20T05:23:32;5.33;;;3.63;;
14326;SDS011;7247;53.330;-1.180;2023-07-20T05:25:58;5.03;;;4.30;;
14326;SDS011;7247;53.330;-1.180;2023-07-20T05:28:25;5.17;;;3.97;;
14326;SDS011;7247;53.330;-1.180;2023-07-20T05:30:53;8.70;;;3.90;;
14326;SDS011;7247;53.330;-1.180;2023-07-20T05:33:20;6.37;;;4.37;;
14326;SDS011;7247;53.330;-1.180;2023-07-20T05:35:47;5.37;;;4.23;;
14326;SDS011;7247;53.330;-1.180;2023-07-20T05:38:13;5.97;;;4.17;;
14326;SDS011;7247;53.330;-1.180;2023-07-20T05:40:40;5.57;;;4.03;;
14326;SDS011;7247;53.330;-1.180;2023-07-20T05:43:06;7.13;;;4.50;;
14326;SDS011;7247;53.330;-1.180;2023-07-20T05:45:34;6.37;;;4.67;;
14326;SDS011;7247;53.330;-1.180;2023-07-20T05:48:02;6.77;;;4.10;;
14326;SDS011;7247;53.330;-1.180;2023-07-20T05:50:28;7.87;;;4.27;;
14326;SDS011;7247;53.330;-1.180;2023-07-20T05:52:55;7.90;;;4.60;;
14326;SDS011;7247;53.330;-1.180;2023-07-20T05:55:21;7.53;;;4.80;;
14326;SDS011;7247;53.330;-1.180;2023-07-20T05:57:48;6.17;;;4.90;;
14326;SDS011;7247;53.330;-1.180;2023-07-20T06:00:15;6.50;;;4.40;;
14326;SDS011;7247;53.330;-1.180;2023-07-20T06:02:44;6.27;;;4.90;;
14326;SDS011;7247;53.330;-1.180;2023-07-20T06:05:12;6.73;;;4.90;;
14326;SDS011;7247;53.330;-1.180;2023-07-20T06:07:39;6.97;;;4.90;;
14326;SDS011;7247;53.330;-1.180;2023-07-20T06:10:06;6.00;;;4.70;;
14326;SDS011;7247;53.330;-1.180;2023-07-20T06:12:32;9.83;;;5.17;;
14326;SDS011;7247;53.330;-1.180;2023-07-20T06:15:01;7.57;;;5.17;;
14326;SDS011;7247;53.330;-1.180;2023-07-20T06:17:27;10.80;;;5.23;;
14326;SDS011;7247;53.330;-1.180;2023-07-20T06:19:54;10.47;;;5.20;;
14326;SDS011;7247;53.330;-1.180;2023-07-20T06:22:21;7.87;;;4.90;;
14326;SDS011;7247;53.330;-1.180;2023-07-20T06:24:48;7.73;;;5.30;;
14326;SDS011;7247;53.330;-1.180;2023-07-20T06:27:14;7.80;;;5.20;;
14326;SDS011;7247;53.330;-1.180;2023-07-20T06:29:41;8.23;;;5.43;;
14326;SDS011;7247;53.330;-1.180;2023-07-20T06:32:07;7.53;;;5.37;;
14326;SDS011;7247;53.330;-1.180;2023-07-20T06:34:34;8.90;;;5.40;;
14326;SDS011;7247;53.330;-1.180;2023-07-20T06:37:02;6.70;;;5.60;;
14326;SDS011;7247;53.330;-1.180;2023-07-20T06:39:30;8.03;;;5.67;;
14326;SDS011;7247;53.330;-1.180;2023-07-20T06:41:56;10.23;;;5.63;;
14326;SDS011;7247;53.330;-1.180;2023-07-20T06:44:23;8.47;;;5.17;;
14326;SDS011;7247;53.330;-1.180;2023-07-20T06:46:49;10.07;;;5.73;;
14326;SDS011;7247;53.330;-1.180;2023-07-20T06:49:23;8.87;;;5.80;;
14326;SDS011;7247;53.330;-1.180;2023-07-20T06:51:50;12.60;;;5.60;;
14326;SDS011;7247;53.330;-1.180;2023-07-20T06:54:16;6.70;;;5.20;;
14326;SDS011;7247;53.330;-1.180;2023-07-20T06:56:44;8.70;;;5.90;;
14326;SDS011;7247;53.330;-1.180;2023-07-20T06:59:10;7.93;;;5.87;;
14326;SDS011;7247;53.330;-1.180;2023-07-20T07:01:37;9.87;;;5.83;;
14326;SDS011;7247;53.330;-1.180;2023-07-20T07:04:04;8.60;;;5.87;;
14326;SDS011;7247;53.330;-1.180;2023-07-20T07:06:30;6.63;;;5.53;;
14326;SDS011;7247;53.330;-1.180;2023-07-20T07:08:58;8.90;;;5.80;;
14326;SDS011;7247;53.330;-1.180;2023-07-20T07:11:24;8.67;;;6.20;;
14326;SDS011;7247;53.330;-1.180;2023-07-20T07:13:52;8.00;;;6.27;;
14326;SDS011;7247;53.330;-1.180;2023-07-20T07:16:19;9.23;;;6.33;;
14326;SDS011;7247;53.330;-1.180;2023-07-20T07:18:45;9.33;;;6.83;;
14326;SDS011;7247;53.330;-1.180;2023-07-20T07:21:12;9.03;;;6.93;;
14326;SDS011;7247;53.330;-1.180;2023-07-20T07:23:38;9.60;;;7.40;;
14326;SDS011;7247;53.330;-1.180;2023-07-20T07:26:05;10.77;;;6.93;;
14326;SDS011;7247;53.330;-1.180;2023-07-20T07:28:31;8.97;;;7.10;;
14326;SDS011;7247;53.330;-1.180;2023-07-20T07:30:59;9.57;;;6.97;;
14326;SDS011;7247;53.330;-1.180;2023-07-20T07:33:25;9.67;;;6.80;;
14326;SDS011;7247;53.330;-1.180;2023-07-20T07:35:52;10.53;;;7.83;;
14326;SDS011;7247;53.330;-1.180;2023-07-20T07:38:18;10.83;;;7.47;;
14326;SDS011;7247;53.330;-1.180;2023-07-20T07:40:45;9.50;;;7.40;;
14326;SDS011;7247;53.330;-1.180;2023-07-20T07:43:11;9.10;;;7.67;;
14326;SDS011;7247;53.330;-1.180;2023-07-20T07:45:39;10.70;;;7.23;;
14326;SDS011;7247;53.330;-1.180;2023-07-20T07:48:07;9.37;;;7.23;;
14326;SDS011;7247;53.330;-1.180;2023-07-20T07:50:36;11.43;;;7.87;;
14326;SDS011;7247;53.330;-1.180;2023-07-20T07:53:03;10.33;;;7.70;;
14326;SDS011;7247;53.330;-1.180;2023-07-20T07:55:29;13.00;;;8.40;;
14326;SDS011;7247;53.330;-1.180;2023-07-20T07:57:56;10.47;;;8.10;;
14326;SDS011;7247;53.330;-1.180;2023-07-20T08:00:22;10.23;;;8.57;;
14326;SDS011;7247;53.330;-1.180;2023-07-20T08:02:49;12.03;;;8.77;;
14326;SDS011;7247;53.330;-1.180;2023-07-20T08:05:17;11.37;;;8.27;;
14326;SDS011;7247;53.330;-1.180;2023-07-20T08:07:44;13.03;;;8.90;;
14326;SDS011;7247;53.330;-1.180;2023-07-20T08:10:11;12.07;;;9.03;;
14326;SDS011;7247;53.330;-1.180;2023-07-20T08:12:38;13.80;;;9.13;;
14326;SDS011;7247;53.330;-1.180;2023-07-20T08:15:04;10.60;;;9.13;;
14326;SDS011;7247;53.330;-1.180;2023-07-20T08:17:31;12.63;;;9.57;;
14326;SDS011;7247;53.330;-1.180;2023-07-20T08:19:57;14.00;;;9.53;;
14326;SDS011;7247;53.330;-1.180;2023-07-20T08:22:25;13.30;;;10.10;;
14326;SDS011;7247;53.330;-1.180;2023-07-20T08:24:51;13.30;;;9.73;;
14326;SDS011;7247;53.330;-1.180;2023-07-20T08:27:18;11.73;;;9.57;;
14326;SDS011;7247;53.330;-1.180;2023-07-20T08:29:44;12.80;;;9.57;;
14326;SDS011;7247;53.330;-1.180;2023-07-20T08:32:11;13.20;;;9.63;;
14326;SDS011;7247;53.330;-1.180;2023-07-20T08:34:38;12.37;;;9.77;;
14326;SDS011;7247;53.330;-1.180;2023-07-20T08:37:05;12.83;;;10.60;;
14326;SDS011;7247;53.330;-1.180;2023-07-20T08:39:33;15.83;;;11.20;;
14326;SDS011;7247;53.330;-1.180;2023-07-20T08:42:00;14.07;;;10.80;;
14326;SDS011;7247;53.330;-1.180;2023-07-20T08:44:29;13.30;;;10.57;;
14326;SDS011;7247;53.330;-1.180;2023-07-20T08:46:56;14.10;;;10.70;;
14326;SDS011;7247;53.330;-1.180;2023-07-20T08:49:22;13.97;;;11.33;;
14326;SDS011;7247;53.330;-1.180;2023-07-20T08:51:49;12.97;;;10.50;;
14326;SDS011;7247;53.330;-1.180;2023-07-20T08:54:17;13.23;;;10.50;;
14326;SDS011;7247;53.330;-1.180;2023-07-20T08:56:45;12.97;;;9.90;;
14326;SDS011;7247;53.330;-1.180;2023-07-20T08:59:12;16.73;;;10.43;;
14326;SDS011;7247;53.330;-1.180;2023-07-20T09:01:39;12.13;;;10.37;;
14326;SDS011;7247;53.330;-1.180;2023-07-20T09:04:05;12.70;;;9.93;;
14326;SDS011;7247;53.330;-1.180;2023-07-20T09:06:32;12.20;;;9.47;;
14326;SDS011;7247;53.330;-1.180;2023-07-20T09:09:00;12.63;;;10.13;;
14326;SDS011;7247;53.330;-1.180;2023-07-20T09:11:26;10.83;;;8.47;;
14326;SDS011;7247;53.330;-1.180;2023-07-20T09:14:03;10.10;;;8.80;;
14326;SDS011;7247;53.330;-1.180;2023-07-20T09:16:29;9.13;;;7.60;;
14326;SDS011;7247;53.330;-1.180;2023-07-20T09:18:57;12.43;;;8.47;;
14326;SDS011;7247;53.330;-1.180;2023-07-20T09:21:23;14.00;;;9.07;;
14326;SDS011;7247;53.330;-1.180;2023-07-20T09:23:50;10.43;;;7.67;;
14326;SDS011;7247;53.330;-1.180;2023-07-20T09:26:22;11.43;;;8.10;;
14326;SDS011;7247;53.330;-1.180;2023-07-20T09:28:49;10.70;;;8.00;;
14326;SDS011;7247;53.330;-1.180;2023-07-20T09:31:17;9.90;;;7.93;;
14326;SDS011;7247;53.330;-1.180;2023-07-20T09:33:44;10.77;;;8.80;;
14326;SDS011;7247;53.330;-1.180;2023-07-20T09:36:10;12.20;;;8.30;;
14326;SDS011;7247;53.330;-1.180;2023-07-20T09:38:37;9.90;;;8.23;;
14326;SDS011;7247;53.330;-1.180;2023-07-20T09:41:04;12.27;;;7.80;;
14326;SDS011;7247;53.330;-1.180;2023-07-20T09:43:31;10.63;;;7.83;;
14326;SDS011;7247;53.330;-1.180;2023-07-20T09:45:58;9.13;;;7.40;;
14326;SDS011;7247;53.330;-1.180;2023-07-20T09:48:26;10.23;;;7.90;;
14326;SDS011;7247;53.330;-1.180;2023-07-20T09:50:52;9.83;;;7.70;;
14326;SDS011;7247;53.330;-1.180;2023-07-20T09:53:20;10.97;;;8.20;;
14326;SDS011;7247;53.330;-1.180;2023-07-20T09:55:46;9.00;;;7.77;;
14326;SDS011;7247;53.330;-1.180;2023-07-20T09:58:13;11.90;;;8.00;;
14326;SDS011;7247;53.330;-1.180;2023-07-20T10:00:41;9.37;;;8.07;;
14326;SDS011;7247;53.330;-1.180;2023-07-20T10:03:13;7.80;;;6.97;;
14326;SDS011;7247;53.330;-1.180;2023-07-20T10:05:43;8.77;;;7.37;;
14326;SDS011;7247;53.330;-1.180;2023-07-20T10:08:10;9.87;;;7.70;;
14326;SDS011;7247;53.330;-1.180;2023-07-20T10:10:38;9.63;;;8.03;;
14326;SDS011;7247;53.330;-1.180;2023-07-20T10:13:08;9.57;;;8.57;;
14326;SDS011;7247;53.330;-1.180;2023-07-20T10:15:36;10.10;;;8.03;;
14326;SDS011;7247;53.330;-1.180;2023-07-20T10:18:05;9.13;;;7.80;;
14326;SDS011;7247;53.330;-1.180;2023-07-20T10:20:33;8.87;;;7.83;;
14326;SDS011;7247;53.330;-1.180;2023-07-20T10:23:02;11.57;;;7.77;;
14326;SDS011;7247;53.330;-1.180;2023-07-20T10:25:28;11.77;;;8.30;;
14326;SDS011;7247;53.330;-1.180;2023-07-20T10:27:55;10.43;;;8.30;;
14326;SDS011;7247;53.330;-1.180;2023-07-20T10:30:23;12.37;;;8.83;;
14326;SDS011;7247;53.330;-1.180;2023-07-20T10:32:50;11.10;;;8.93;;
14326;SDS011;7247;53.330;-1.180;2023-07-20T10:35:17;13.53;;;9.13;;
14326;SDS011;7247;53.330;-1.180;2023-07-20T10:37:48;10.60;;;8.87;;
14326;SDS011;7247;53.330;-1.180;2023-07-20T10:40:25;12.03;;;9.13;;
14326;SDS011;7247;53.330;-1.180;2023-07-20T10:42:55;12.23;;;9.17;;
14326;SDS011;7247;53.330;-1.180;2023-07-20T10:45:29;9.77;;;8.70;;
14326;SDS011;7247;53.330;-1.180;2023-07-20T10:47:58;11.63;;;9.20;;
14326;SDS011;7247;53.330;-1.180;2023-07-20T10:50:28;10.97;;;9.00;;
14326;SDS011;7247;53.330;-1.180;2023-07-20T10:53:04;10.40;;;8.90;;
14326;SDS011;7247;53.330;-1.180;2023-07-20T10:55:32;14.53;;;9.27;;
14326;SDS011;7247;53.330;-1.180;2023-07-20T10:58:09;9.60;;;8.50;;
14326;SDS011;7247;53.330;-1.180;2023-07-20T11:00:36;10.80;;;9.23;;
14326;SDS011;7247;53.330;-1.180;2023-07-20T11:03:03;9.90;;;8.53;;
14326;SDS011;7247;53.330;-1.180;2023-07-20T11:05:33;10.27;;;9.10;;
14326;SDS011;7247;53.330;-1.180;2023-07-20T11:08:02;10.20;;;9.20;;
14326;SDS011;7247;53.330;-1.180;2023-07-20T11:10:29;10.50;;;8.57;;
14326;SDS011;7247;53.330;-1.180;2023-07-20T11:16:00;10.10;;;8.13;;
14326;SDS011;7247;53.330;-1.180;2023-07-20T11:18:27;9.80;;;8.80;;
14326;SDS011;7247;53.330;-1.180;2023-07-20T11:20:54;11.17;;;8.57;;
14326;SDS011;7247;53.330;-1.180;2023-07-20T11:23:21;9.67;;;8.07;;
14326;SDS011;7247;53.330;-1.180;2023-07-20T11:25:47;10.93;;;8.73;;
14326;SDS011;7247;53.330;-1.180;2023-07-20T11:28:14;9.03;;;8.00;;
14326;SDS011;7247;53.330;-1.180;2023-07-20T11:30:41;9.87;;;8.50;;
14326;SDS011;7247;53.330;-1.180;2023-07-20T11:33:09;8.53;;;7.70;;
14326;SDS011;7247;53.330;-1.180;2023-07-20T11:35:35;12.67;;;8.30;;
14326;SDS011;7247;53.330;-1.180;2023-07-20T11:38:02;9.30;;;8.20;;
14326;SDS011;7247;53.330;-1.180;2023-07-20T11:40:29;10.37;;;9.10;;
14326;SDS011;7247;53.330;-1.180;2023-07-20T11:42:55;9.07;;;8.07;;
14326;SDS011;7247;53.330;-1.180;2023-07-20T11:45:22;9.63;;;8.40;;
14326;SDS011;7247;53.330;-1.180;2023-07-20T11:47:48;10.40;;;8.93;;
14326;SDS011;7247;53.330;-1.180;2023-07-20T11:50:16;10.00;;;8.37;;
14326;SDS011;7247;53.330;-1.180;2023-07-20T11:52:42;8.67;;;7.83;;
14326;SDS011;7247;53.330;-1.180;2023-07-20T11:55:09;10.33;;;8.97;;
14326;SDS011;7247;53.330;-1.180;2023-07-20T11:57:36;9.07;;;8.17;;
14326;SDS011;7247;53.330;-1.180;2023-07-20T12:00:04;9.13;;;8.17;;
14326;SDS011;7247;53.330;-1.180;2023-07-20T12:02:36;9.13;;;8.10;;
14326;SDS011;7247;53.330;-1.180;2023-07-20T12:05:03;9.77;;;8.60;;
14326;SDS011;7247;53.330;-1.180;2023-07-20T12:07:32;10.33;;;8.13;;
14326;SDS011;7247;53.330;-1.180;2023-07-20T12:10:04;8.83;;;7.90;;
14326;SDS011;7247;53.330;-1.180;2023-07-20T12:12:31;9.83;;;8.03;;
14326;SDS011;7247;53.330;-1.180;2023-07-20T12:15:11;10.90;;;8.33;;
14326;SDS011;7247;53.330;-1.180;2023-07-20T12:17:41;9.30;;;8.13;;
14326;SDS011;7247;53.330;-1.180;2023-07-20T12:20:08;10.23;;;8.60;;
14326;SDS011;7247;53.330;-1.180;2023-07-20T12:22:39;9.70;;;8.77;;
14326;SDS011;7247;53.330;-1.180;2023-07-20T12:25:06;10.30;;;9.10;;
14326;SDS011;7247;53.330;-1.180;2023-07-20T12:27:32;11.57;;;9.47;;
14326;SDS011;7247;53.330;-1.180;2023-07-20T12:29:59;10.60;;;8.10;;
14326;SDS011;7247;53.330;-1.180;2023-07-20T12:32:25;9.53;;;8.53;;
14326;SDS011;7247;53.330;-1.180;2023-07-20T12:34:52;10.23;;;8.53;;
14326;SDS011;7247;53.330;-1.180;2023-07-20T12:37:18;8.17;;;7.30;;
14326;SDS011;7247;53.330;-1.180;2023-07-20T12:39:46;10.13;;;7.60;;
14326;SDS011;7247;53.330;-1.180;2023-07-20T12:42:13;8.27;;;7.33;;
14326;SDS011;7247;53.330;-1.180;2023-07-20T12:44:40;9.70;;;7.40;;
14326;SDS011;7247;53.330;-1.180;2023-07-20T12:47:06;7.87;;;7.07;;
14326;SDS011;7247;53.330;-1.180;2023-07-20T12:49:33;9.60;;;7.27;;
14326;SDS011;7247;53.330;-1.180;2023-07-20T12:51:59;9.23;;;7.03;;
14326;SDS011;7247;53.330;-1.180;2023-07-20T12:54:26;10.30;;;7.40;;
14326;SDS011;7247;53.330;-1.180;2023-07-20T12:56:54;10.73;;;7.83;;
14326;SDS011;7247;53.330;-1.180;2023-07-20T12:59:20;11.07;;;7.93;;
14326;SDS011;7247;53.330;-1.180;2023-07-20T13:01:46;11.17;;;7.63;;
14326;SDS011;7247;53.330;-1.180;2023-07-20T13:04:13;7.47;;;6.30;;
14326;SDS011;7247;53.330;-1.180;2023-07-20T13:06:39;7.03;;;6.23;;
14326;SDS011;7247;53.330;-1.180;2023-07-20T13:09:06;7.40;;;6.70;;
14326;SDS011;7247;53.330;-1.180;2023-07-20T13:11:33;6.93;;;6.30;;
14326;SDS011;7247;53.330;-1.180;2023-07-20T13:14:01;7.07;;;6.40;;
14326;SDS011;7247;53.330;-1.180;2023-07-20T13:16:27;7.28;;;6.68;;
14326;SDS011;7247;53.330;-1.180;2023-07-20T13:18:53;9.02;;;6.82;;
14326;SDS011;7247;53.330;-1.180;2023-07-20T13:21:20;7.30;;;6.65;;
14326;SDS011;7247;53.330;-1.180;2023-07-20T13:23:47;7.65;;;6.95;;
14326;SDS011;7247;53.330;-1.180;2023-07-20T13:26:14;7.37;;;6.67;;
14326;SDS011;7247;53.330;-1.180;2023-07-20T13:28:40;8.07;;;7.27;;
14326;SDS011;7247;53.330;-1.180;2023-07-20T13:31:08;8.70;;;6.70;;
14326;SDS011;7247;53.330;-1.180;2023-07-20T13:33:36;7.50;;;6.70;;
14326;SDS011;7247;53.330;-1.180;2023-07-20T13:36:02;14.40;;;7.00;;
14326;SDS011;7247;53.330;-1.180;2023-07-20T13:38:30;8.07;;;7.10;;
14326;SDS011;7247;53.330;-1.180;2023-07-20T13:40:57;7.60;;;6.77;;
14326;SDS011;7247;53.330;-1.180;2023-07-20T13:43:23;5.63;;;5.07;;
14326;SDS011;7247;53.330;-1.180;2023-07-20T13:45:50;6.17;;;5.57;;
14326;SDS011;7247;53.330;-1.180;2023-07-20T13:48:18;8.37;;;6.73;;
14326;SDS011;7247;53.330;-1.180;2023-07-20T13:50:48;6.20;;;5.20;;
14326;SDS011;7247;53.330;-1.180;2023-07-20T13:53:14;4.90;;;4.40;;
14326;SDS011;7247;53.330;-1.180;2023-07-20T13:55:41;4.83;;;4.33;;
14326;SDS011;7247;53.330;-1.180;2023-07-20T13:58:08;4.30;;;3.90;;
14326;SDS011;7247;53.330;-1.180;2023-07-20T14:00:35;4.57;;;4.17;;
14326;SDS011;7247;53.330;-1.180;2023-07-20T14:03:02;5.30;;;4.20;;
14326;SDS011;7247;53.330;-1.180;2023-07-20T14:05:30;5.30;;;4.80;;
14326;SDS011;7247;53.330;-1.180;2023-07-20T14:07:56;4.90;;;4.40;;
14326;SDS011;7247;53.330;-1.180;2023-07-20T14:10:23;5.97;;;4.90;;
14326;SDS011;7247;53.330;-1.180;2023-07-20T14:12:49;5.27;;;4.53;;
14326;SDS011;7247;53.330;-1.180;2023-07-20T14:15:16;4.67;;;4.27;;
14326;SDS011;7247;53.330;-1.180;2023-07-20T14:17:43;5.30;;;4.80;;
14326;SDS011;7247;53.330;-1.180;2023-07-20T14:20:10;5.43;;;4.97;;
14326;SDS011;7247;53.330;-1.180;2023-07-20T14:22:38;4.93;;;4.43;;
14326;SDS011;7247;53.330;-1.180;2023-07-20T14:25:07;4.90;;;4.40;;
14326;SDS011;7247;53.330;-1.180;2023-07-20T14:27:33;5.30;;;4.80;;
14326;SDS011;7247;53.330;-1.180;2023-07-20T14:30:00;5.03;;;4.63;;
14326;SDS011;7247;53.330;-1.180;2023-07-20T14:32:26;5.57;;;4.63;;
14326;SDS011;7247;53.330;-1.180;2023-07-20T14:34:53;5.35;;;4.85;;
14326;SDS011;7247;53.330;-1.180;2023-07-20T14:37:19;5.30;;;4.80;;
14326;SDS011;7247;53.330;-1.180;2023-07-20T14:39:47;5.63;;;5.03;;
14326;SDS011;7247;53.330;-1.180;2023-07-20T14:42:14;6.55;;;4.72;;
14326;SDS011;7247;53.330;-1.180;2023-07-20T14:44:40;5.00;;;4.50;;
14326;SDS011;7247;53.330;-1.180;2023-07-20T14:47:07;4.80;;;4.40;;